Time;durP1;ratioP1;P1;durP2;ratioP2;P2;SDS_P1;SDS_P2;PMS_P1;PMS_P2;Temp;Humidity;BMP_temperature;BMP_pressure;BME280_temperature;BME280_humidity;BME280_pressure;Samples;Min_cycle;Max_cycle;Signal;HPM_P1;HPM_P2
2023/06/16 00:01:53;;;;;;;2.57;0.80;;;;;;;22.71;44.89;99860.31;5033333;28;20056;-58
2023/06/16 00:04:25;;;;;;;1.10;0.80;;;;;;;22.75;44.94;99861.78;5043561;28;20048;-56
2023/06/16 00:06:56;;;;;;;8.23;1.50;;;;;;;22.82;47.28;99846.22;5032292;28;20052;-56
2023/06/16 00:09:27;;;;;;;5.33;1.10;;;;;;;22.59;45.18;99837.25;5038427;28;20052;-56
2023/06/16 00:11:58;;;;;;;8.10;1.73;;;;;;;22.28;45.19;99814.66;5027553;28;20068;-57
2023/06/16 00:14:28;;;;;;;4.53;1.00;;;;;;;22.45;46.56;99848.06;5040228;28;20454;-56
2023/06/16 00:17:00;;;;;;;3.40;0.90;;;;;;;22.47;44.98;99840.81;5025441;28;20683;-57
2023/06/16 00:19:31;;;;;;;1.43;0.77;;;;;;;22.42;47.38;99837.63;5044194;28;20068;-56
2023/06/16 00:22:03;;;;;;;9.77;1.17;;;;;;;22.53;47.18;99827.03;5023628;28;20241;-57
2023/06/16 00:24:34;;;;;;;1.90;1.10;;;;;;;22.64;46.10;99832.44;5015204;28;20112;-57
2023/06/16 00:27:05;;;;;;;2.77;1.10;;;;;;;22.56;46.85;99808.19;5025258;28;20564;-58
2023/06/16 00:29:38;;;;;;;2.03;1.00;;;;;;;22.85;46.65;99823.81;5014132;28;20045;-56
2023/06/16 00:32:10;;;;;;;4.20;1.10;;;;;;;22.81;48.61;99828.50;5032489;28;20402;-56
2023/06/16 00:34:40;;;;;;;3.67;1.10;;;;;;;22.74;45.24;99816.63;5020370;28;20451;-55
2023/06/16 00:37:11;;;;;;;2.13;0.70;;;;;;;22.75;45.93;99819.16;5041533;28;20052;-57
2023/06/16 00:39:42;;;;;;;4.17;1.10;;;;;;;22.68;45.61;99819.75;5034062;28;20106;-56
2023/06/16 00:42:12;;;;;;;2.67;1.07;;;;;;;22.78;47.30;99816.28;5042324;28;20475;-58
2023/06/16 00:44:43;;;;;;;1.37;0.90;;;;;;;22.84;46.53;99807.00;5017836;28;20049;-55
2023/06/16 00:47:15;;;;;;;2.40;0.90;;;;;;;22.95;48.07;99814.19;5023900;28;20505;-55
2023/06/16 00:49:46;;;;;;;2.20;1.00;;;;;;;22.98;47.40;99808.66;5013831;28;20053;-57
2023/06/16 00:52:19;;;;;;;2.10;1.20;;;;;;;22.88;45.91;99815.59;5040599;28;20139;-57
2023/06/16 00:54:50;;;;;;;2.73;0.90;;;;;;;22.80;46.74;99811.69;5031542;28;20084;-57
2023/06/16 00:57:20;;;;;;;2.43;1.17;;;;;;;22.67;46.32;99778.94;5041760;28;20053;-58
2023/06/16 00:59:51;;;;;;;5.53;0.90;;;;;;;22.76;45.78;99798.72;5032457;28;20076;-56
2023/06/16 01:02:24;;;;;;;4.23;1.13;;;;;;;22.82;46.16;99803.59;5041665;28;20064;-56
2023/06/16 01:04:55;;;;;;;2.37;1.07;;;;;;;22.92;47.70;99803.75;5017256;28;20041;-57
2023/06/16 01:07:32;;;;;;;6.20;1.33;;;;;;;23.06;46.68;99806.25;5027965;28;20081;-57
2023/06/16 01:10:09;;;;;;;8.63;1.20;;;;;;;23.08;47.75;99809.66;5021707;28;20052;-58
2023/06/16 01:12:46;;;;;;;1.80;1.20;;;;;;;22.96;46.06;99794.56;5033405;28;20048;-57
2023/06/16 01:15:21;;;;;;;3.07;1.20;;;;;;;23.07;46.27;99797.31;5043832;28;20129;-58
2023/06/16 01:17:59;;;;;;;2.20;1.00;;;;;;;23.07;46.45;99797.31;5033480;28;20458;-57
2023/06/16 01:20:43;;;;;;;13.70;1.47;;;;;;;23.29;46.86;99777.84;5043064;28;20390;-56
2023/06/16 01:23:40;;;;;;;3.17;1.03;;;;;;;23.64;45.45;99791.13;5042752;28;20139;-57
2023/06/16 01:26:14;;;;;;;2.87;1.10;;;;;;;23.39;44.81;99748.69;5030576;28;20055;-57
2023/06/16 01:28:45;;;;;;;2.53;1.23;;;;;;;23.63;45.12;99776.06;5028050;28;20079;-59
2023/06/16 01:31:18;;;;;;;3.33;1.30;;;;;;;23.71;45.70;99779.94;5037891;28;20612;-60
2023/06/16 01:33:49;;;;;;;2.13;0.90;;;;;;;23.78;45.26;99770.53;5027922;28;20079;-57
2023/06/16 01:36:20;;;;;;;3.83;1.00;;;;;;;23.89;42.70;99786.53;5039203;28;20392;-58
2023/06/16 01:38:52;;;;;;;3.37;0.80;;;;;;;23.77;44.35;99768.84;5026314;28;20495;-60
2023/06/16 01:41:24;;;;;;;3.43;1.07;;;;;;;24.06;45.51;99786.03;5040204;28;20106;-60
2023/06/16 01:43:56;;;;;;;5.47;1.13;;;;;;;23.84;44.89;99748.72;5032257;28;20434;-60
2023/06/16 01:46:27;;;;;;;1.90;0.90;;;;;;;24.19;44.00;99787.69;5042746;28;20048;-58
2023/06/16 01:48:59;;;;;;;3.73;1.30;;;;;;;24.10;43.58;99782.13;5032819;28;20139;-59
2023/06/16 01:51:30;;;;;;;4.03;1.50;;;;;;;24.30;44.94;99782.34;5042689;28;20460;-57
2023/06/16 01:54:04;;;;;;;4.50;0.90;;;;;;;24.38;43.76;99774.56;5032131;28;20110;-58
2023/06/16 01:56:36;;;;;;;1.87;0.97;;;;;;;24.66;46.51;99772.31;5032296;28;20055;-58
2023/06/16 01:59:06;;;;;;;4.83;1.50;;;;;;;24.71;43.31;99770.09;5041952;28;20131;-59
2023/06/16 02:01:42;;;;;;;5.10;1.03;;;;;;;24.63;43.65;99741.38;5031845;28;20064;-58
2023/06/16 02:04:17;;;;;;;1.60;0.97;;;;;;;24.48;42.70;99764.84;5041549;28;20052;-57
2023/06/16 02:06:53;;;;;;;3.77;1.10;;;;;;;24.50;43.37;99752.22;5031843;28;20060;-57
2023/06/16 02:09:27;;;;;;;1.80;0.90;;;;;;;24.58;43.60;99748.91;5042004;28;20559;-58
2023/06/16 02:12:00;;;;;;;2.67;0.80;;;;;;;24.21;44.19;99665.63;5031938;28;20122;-57
2023/06/16 02:14:33;;;;;;;3.10;1.10;;;;;;;24.88;44.24;99740.16;5041651;28;20126;-59
2023/06/16 02:17:06;;;;;;;7.43;1.20;;;;;;;24.87;43.21;99722.44;5031979;28;20071;-58
2023/06/16 02:19:40;;;;;;;2.80;1.10;;;;;;;24.89;42.08;99744.53;5031649;28;20085;-58
2023/06/16 02:22:14;;;;;;;19.00;2.23;;;;;;;24.81;42.50;99741.66;5041550;28;20560;-60
2023/06/16 02:24:45;;;;;;;6.87;1.23;;;;;;;24.83;41.38;99745.03;5031614;28;20127;-60
2023/06/16 02:27:17;;;;;;;3.27;0.97;;;;;;;24.75;40.67;99734.16;5042486;28;20053;-59
2023/06/16 02:29:48;;;;;;;102.90;7.37;;;;;;;24.92;41.24;99730.91;5031161;28;20080;-61
2023/06/16 02:32:18;;;;;;;15.20;1.47;;;;;;;25.16;42.48;99733.34;5041815;28;20231;-59
2023/06/16 02:34:52;;;;;;;2.47;1.00;;;;;;;25.25;41.49;99725.53;5031279;28;20048;-59
2023/06/16 02:37:27;;;;;;;4.70;1.07;;;;;;;25.02;40.89;99716.78;5041512;28;20051;-58
2023/06/16 02:39:57;;;;;;;9.10;1.10;;;;;;;25.08;42.12;99713.56;5031287;28;20114;-59
2023/06/16 02:42:30;;;;;;;6.03;1.00;;;;;;;24.81;41.27;99680.22;5042096;28;20569;-60
2023/06/16 02:45:00;;;;;;;1.07;0.80;;;;;;;25.00;39.35;99721.41;5031377;28;20068;-58
2023/06/16 02:47:31;;;;;;;1.17;0.77;;;;;;;24.95;39.51;99725.28;5041763;28;20066;-58
2023/06/16 02:50:02;;;;;;;6.80;0.97;;;;;;;24.96;39.43;99727.00;5030962;28;20109;-58
2023/06/16 02:52:32;;;;;;;1.80;0.93;;;;;;;24.87;40.46;99714.41;5036795;28;20507;-59
2023/06/16 02:55:03;;;;;;;4.37;1.30;;;;;;;24.70;40.76;99677.59;5041657;28;20048;-58
2023/06/16 02:57:35;;;;;;;4.97;0.93;;;;;;;24.75;40.30;99707.44;5031309;28;20140;-58
2023/06/16 03:00:10;;;;;;;0.90;0.77;;;;;;;24.77;40.10;99716.19;5041460;28;21013;-59
2023/06/16 03:02:41;;;;;;;10.50;1.50;;;;;;;24.79;38.05;99698.19;5030830;28;20147;-59
2023/06/16 03:05:12;;;;;;;7.87;0.80;;;;;;;24.90;38.63;99706.13;5040704;28;20106;-59
2023/06/16 03:07:46;;;;;;;3.40;0.80;;;;;;;24.92;38.61;99712.19;5030601;28;20051;-60
2023/06/16 03:10:16;;;;;;;6.17;1.20;;;;;;;25.06;38.33;99705.69;5040861;28;20049;-60
2023/06/16 03:12:49;;;;;;;3.20;1.00;;;;;;;25.12;38.22;99704.31;5030966;28;20049;-59
2023/06/16 03:15:23;;;;;;;9.00;1.07;;;;;;;25.06;38.34;99704.81;5041075;28;20113;-59
2023/06/16 03:17:53;;;;;;;6.63;1.13;;;;;;;24.97;39.94;99691.28;5030567;28;20467;-58
2023/06/16 03:20:25;;;;;;;4.77;0.77;;;;;;;25.08;39.60;99698.38;5040604;28;20391;-60
2023/06/16 03:22:56;;;;;;;1.60;0.67;;;;;;;25.07;37.97;99695.84;5030947;28;20044;-60
2023/06/16 03:25:27;;;;;;;3.33;0.90;;;;;;;25.20;38.75;99685.81;5040386;28;20044;-61
2023/06/16 03:28:00;;;;;;;3.67;0.80;;;;;;;25.19;36.46;99684.13;5030173;28;20531;-58
2023/06/16 03:30:37;;;;;;;4.50;0.70;;;;;;;25.38;37.38;99684.19;5039183;28;20056;-56
2023/06/16 03:33:14;;;;;;;0.97;0.70;;;;;;;25.49;35.20;99688.63;5040425;28;20053;-61
2023/06/16 03:35:45;;;;;;;0.40;0.40;;;;;;;25.52;36.71;99690.19;5029836;28;20135;-59
2023/06/16 03:38:16;;;;;;;5.43;0.77;;;;;;;25.53;37.02;99686.50;5040338;28;20048;-59
2023/06/16 03:40:46;;;;;;;8.17;1.10;;;;;;;25.50;35.76;99681.44;5029987;28;20059;-59
2023/06/16 03:43:19;;;;;;;1.70;0.70;;;;;;;25.63;36.61;99682.03;5040179;28;20525;-61
2023/06/16 03:45:49;;;;;;;1.50;0.80;;;;;;;25.70;38.28;99677.84;5030140;28;20048;-58
2023/06/16 03:48:20;;;;;;;1.30;0.90;;;;;;;25.60;36.08;99687.66;5040903;28;20807;-59
2023/06/16 03:50:52;;;;;;;0.90;0.70;;;;;;;25.28;35.61;99672.59;5030033;28;20145;-59
2023/06/16 03:53:23;;;;;;;1.87;0.70;;;;;;;25.21;36.45;99676.81;5039753;28;20052;-59
2023/06/16 03:55:55;;;;;;;1.57;0.60;;;;;;;25.21;36.33;99665.25;5029805;28;20074;-58
2023/06/16 03:58:28;;;;;;;1.33;0.70;;;;;;;25.21;35.62;99668.81;5040118;28;20084;-60
2023/06/16 04:00:59;;;;;;;2.20;0.60;;;;;;;25.39;35.87;99671.69;5029364;28;20106;-60
2023/06/16 04:03:29;;;;;;;2.20;0.70;;;;;;;25.65;37.22;99669.38;5040840;28;20063;-58
2023/06/16 04:06:04;;;;;;;2.97;0.60;;;;;;;25.88;33.65;99669.19;5028638;28;20048;-59
2023/06/16 04:08:36;;;;;;;5.50;0.73;;;;;;;25.88;34.31;99663.84;5029770;28;20048;-59
2023/06/16 04:11:07;;;;;;;3.10;1.23;;;;;;;26.09;36.13;99656.56;5040156;28;20129;-59
2023/06/16 04:13:39;;;;;;;0.77;0.70;;;;;;;25.75;34.01;99627.44;5029345;28;20055;-58
2023/06/16 04:16:10;;;;;;;1.80;0.80;;;;;;;26.04;35.91;99664.16;5039624;28;20052;-61
2023/06/16 04:18:41;;;;;;;2.63;0.60;;;;;;;26.31;34.77;99654.56;5029662;28;20083;-61
2023/06/16 04:21:11;;;;;;;5.80;0.70;;;;;;;26.37;35.85;99659.38;5039429;28;20143;-60
2023/06/16 04:23:42;;;;;;;2.43;0.73;;;;;;;26.23;35.01;99633.84;5029649;28;20056;-61
2023/06/16 04:26:13;;;;;;;0.70;0.50;;;;;;;26.22;32.39;99651.75;5039843;28;20128;-61
2023/06/16 04:28:48;;;;;;;0.70;0.40;;;;;;;26.16;33.35;99646.97;5029345;28;20426;-61
2023/06/16 04:31:20;;;;;;;3.37;0.70;;;;;;;26.22;31.35;99638.38;5039505;28;20076;-60
2023/06/16 04:33:50;;;;;;;2.40;0.50;;;;;;;26.18;32.46;99641.47;5029445;28;20063;-60
2023/06/16 04:36:21;;;;;;;1.07;0.60;;;;;;;26.15;32.22;99631.88;5040160;28;20076;-62
2023/06/16 04:38:52;;;;;;;0.57;0.57;;;;;;;25.78;33.46;99589.69;5029191;28;20057;-59
2023/06/16 04:41:22;;;;;;;3.10;0.50;;;;;;;26.08;34.16;99612.00;5039629;28;20449;-59
2023/06/16 04:43:55;;;;;;;1.00;0.60;;;;;;;26.08;32.49;99628.06;5028960;28;20832;-59
2023/06/16 04:46:26;;;;;;;2.13;0.60;;;;;;;26.15;33.59;99629.19;5039936;28;20125;-59
2023/06/16 04:48:56;;;;;;;1.53;0.73;;;;;;;26.10;33.41;99628.78;5028993;28;20415;-60
2023/06/16 04:51:28;;;;;;;4.83;1.80;;;;;;;26.00;35.06;99625.25;5039743;28;20056;-59
2023/06/16 04:53:58;;;;;;;7.07;1.27;;;;;;;25.45;34.76;99539.25;5029114;28;20055;-59
2023/06/16 04:56:29;;;;;;;2.80;0.90;;;;;;;25.93;34.57;99624.94;5039634;28;20055;-59
2023/06/16 04:59:01;;;;;;;1.33;0.80;;;;;;;26.07;35.34;99621.03;5028981;28;20056;-59
2023/06/16 05:01:32;;;;;;;2.60;0.80;;;;;;;26.42;36.63;99612.41;5037749;28;20044;-57
2023/06/16 05:04:02;;;;;;;4.43;2.40;;;;;;;26.45;41.84;99611.28;5038939;28;20044;-59
2023/06/16 05:06:36;;;;;;;5.83;2.20;;;;;;;26.16;45.50;99572.00;5031427;28;20044;-59
2023/06/16 05:09:07;;;;;;;9.17;2.80;;;;;;;26.59;45.84;99610.88;5039618;28;20049;-60
2023/06/16 05:11:37;;;;;;;13.13;2.80;;;;;;;26.57;45.92;99598.63;5028716;28;20117;-60
2023/06/16 05:14:10;;;;;;;9.77;2.90;;;;;;;26.82;46.49;99621.28;5039267;28;20128;-58
2023/06/16 05:16:40;;;;;;;7.30;3.10;;;;;;;27.06;48.01;99602.84;5029878;28;20048;-59
2023/06/16 05:19:12;;;;;;;11.73;2.83;;;;;;;27.27;47.52;99599.13;5042785;28;20062;-60
2023/06/16 05:21:42;;;;;;;13.73;2.97;;;;;;;27.17;46.75;99604.50;5033102;28;20135;-59
2023/06/16 05:24:13;;;;;;;11.37;3.17;;;;;;;27.23;48.18;99613.81;5043398;28;20048;-59
2023/06/16 05:26:44;;;;;;;10.23;3.13;;;;;;;27.24;47.78;99610.16;5032992;28;21264;-60
2023/06/16 05:29:16;;;;;;;5.43;2.80;;;;;;;27.24;47.80;99599.44;5042424;28;20059;-59
2023/06/16 05:31:47;;;;;;;12.80;2.90;;;;;;;26.95;47.64;99600.34;5032886;28;20076;-61
2023/06/16 05:34:17;;;;;;;9.60;3.20;;;;;;;26.60;48.61;99606.38;5042716;28;20142;-59
2023/06/16 05:36:48;;;;;;;16.70;4.40;;;;;;;26.52;49.24;99599.00;5032262;28;20487;-59
2023/06/16 05:39:18;;;;;;;19.40;6.83;;;;;;;26.56;49.52;99595.09;5043123;28;20147;-58
2023/06/16 05:41:49;;;;;;;17.77;9.00;;;;;;;26.54;50.33;99564.94;5032401;28;20061;-60
2023/06/16 05:44:21;;;;;;;16.13;6.87;;;;;;;27.02;50.38;99598.75;5042471;28;20147;-60
2023/06/16 05:46:52;;;;;;;9.70;3.07;;;;;;;27.18;48.88;99613.38;5032158;28;21655;-61
2023/06/16 05:49:22;;;;;;;10.27;3.47;;;;;;;27.06;48.71;99610.91;5042725;28;20048;-59
2023/06/16 05:51:53;;;;;;;6.93;3.83;;;;;;;27.04;48.45;99610.19;5032042;28;20714;-61
2023/06/16 05:54:24;;;;;;;10.30;3.43;;;;;;;26.92;48.53;99603.31;5043030;28;20491;-61
2023/06/16 05:56:54;;;;;;;7.30;3.17;;;;;;;26.81;48.69;99598.13;5032174;28;20048;-59
2023/06/16 05:59:27;;;;;;;11.93;3.43;;;;;;;26.59;49.32;99584.09;5042541;28;20055;-60
2023/06/16 06:01:58;;;;;;;6.83;3.10;;;;;;;26.77;49.52;99596.75;5032498;28;20087;-58
2023/06/16 06:04:32;;;;;;;6.63;3.00;;;;;;;26.53;49.21;99584.66;5042561;28;20114;-61
2023/06/16 06:07:03;;;;;;;7.23;2.97;;;;;;;26.57;49.19;99596.78;5031646;28;20137;-60
2023/06/16 06:09:34;;;;;;;11.03;4.33;;;;;;;26.58;50.62;99598.47;5032248;28;20546;-57
2023/06/16 06:12:05;;;;;;;11.00;4.07;;;;;;;26.71;50.26;99603.53;5039745;28;20063;-60
2023/06/16 06:14:37;;;;;;;8.10;3.30;;;;;;;26.66;49.95;99601.28;5031687;28;20048;-60
2023/06/16 06:17:08;;;;;;;5.23;3.00;;;;;;;26.64;49.34;99587.19;5042051;28;20060;-59
2023/06/16 06:19:38;;;;;;;9.33;3.60;;;;;;;26.48;49.59;99602.97;5031977;28;20448;-60
2023/06/16 06:22:09;;;;;;;11.40;3.80;;;;;;;26.54;50.95;99605.13;5041639;28;20040;-61
2023/06/16 06:24:39;;;;;;;9.67;3.23;;;;;;;26.42;49.86;99606.22;5031616;28;20151;-59
2023/06/16 06:27:10;;;;;;;7.30;3.17;;;;;;;25.90;50.94;99609.19;5042109;28;20048;-60
2023/06/16 06:29:42;;;;;;;10.53;3.23;;;;;;;25.33;51.55;99616.91;5031598;28;20048;-59
2023/06/16 06:32:13;;;;;;;9.90;3.30;;;;;;;24.74;53.42;99604.25;5041533;28;20759;-60
2023/06/16 06:34:44;;;;;;;10.07;3.63;;;;;;;24.43;55.04;99606.78;5031365;28;20052;-59
2023/06/16 06:37:18;;;;;;;6.00;3.57;;;;;;;24.19;55.78;99614.19;5041618;28;20049;-59
2023/06/16 06:39:49;;;;;;;5.23;3.30;;;;;;;23.98;56.69;99612.34;5031375;28;20433;-61
2023/06/16 06:42:20;;;;;;;9.03;3.33;;;;;;;23.92;56.88;99612.84;5041759;28;20065;-61
2023/06/16 06:44:52;;;;;;;10.23;3.53;;;;;;;24.05;57.52;99618.88;5031272;28;20045;-61
2023/06/16 06:47:23;;;;;;;10.03;3.60;;;;;;;24.22;56.84;99597.94;5041538;28;20059;-61
2023/06/16 06:49:55;;;;;;;14.60;3.70;;;;;;;24.50;57.16;99608.00;5030910;28;20072;-59
2023/06/16 06:52:25;;;;;;;10.80;3.60;;;;;;;24.57;56.14;99612.84;5040847;28;20032;-59
2023/06/16 06:54:56;;;;;;;8.93;2.90;;;;;;;24.31;56.03;99607.81;5030798;28;20064;-57
2023/06/16 06:57:27;;;;;;;6.87;3.50;;;;;;;24.15;56.60;99607.44;5042616;28;20487;-59
2023/06/16 06:59:59;;;;;;;8.53;3.57;;;;;;;23.95;57.33;99611.75;5031297;28;20167;-59
2023/06/16 07:02:30;;;;;;;8.47;3.40;;;;;;;23.77;57.24;99606.13;5041514;28;20044;-60
2023/06/16 07:05:01;;;;;;;7.20;3.23;;;;;;;23.90;57.70;99598.78;5030569;28;20052;-57
2023/06/16 07:07:32;;;;;;;7.30;3.40;;;;;;;23.90;57.71;99572.13;5039610;28;20609;-58
2023/06/16 07:10:02;;;;;;;7.60;3.53;;;;;;;24.28;57.34;99584.06;5040528;28;20057;-58
2023/06/16 07:12:33;;;;;;;8.97;3.70;;;;;;;24.61;56.36;99603.56;5033115;28;20118;-60
2023/06/16 07:15:06;;;;;;;6.83;3.20;;;;;;;24.69;56.75;99595.78;5041604;28;20072;-58
2023/06/16 07:17:37;;;;;;;8.97;3.40;;;;;;;24.80;56.09;99603.69;5030968;28;20565;-59
2023/06/16 07:20:11;;;;;;;10.67;3.13;;;;;;;24.80;55.49;99601.03;5040589;28;20063;-58
2023/06/16 07:22:43;;;;;;;9.23;3.63;;;;;;;24.73;55.57;99581.16;5030022;28;20048;-59
2023/06/16 07:25:14;;;;;;;11.47;3.43;;;;;;;24.65;55.94;99615.69;5039910;28;20430;-58
2023/06/16 07:27:45;;;;;;;9.00;3.10;;;;;;;24.28;56.10;99619.63;5030608;28;20113;-59
2023/06/16 07:30:17;;;;;;;14.90;3.73;;;;;;;23.97;57.24;99599.97;5040428;28;20070;-60
2023/06/16 07:32:49;;;;;;;9.97;3.37;;;;;;;24.17;57.92;99618.84;5030399;28;20474;-60
2023/06/16 07:35:20;;;;;;;6.20;3.67;;;;;;;24.23;57.58;99615.66;5040662;28;20508;-58
2023/06/16 07:37:51;;;;;;;11.50;3.77;;;;;;;24.34;56.94;99607.59;5028392;28;20053;-58
2023/06/16 07:40:22;;;;;;;18.03;3.57;;;;;;;24.35;57.30;99601.25;5040166;28;20101;-58
2023/06/16 07:42:53;;;;;;;7.53;3.13;;;;;;;24.42;56.44;99605.13;5030099;28;20057;-58
2023/06/16 07:45:25;;;;;;;10.17;3.03;;;;;;;24.36;55.71;99600.28;5040962;28;20060;-58
2023/06/16 07:47:56;;;;;;;8.87;3.17;;;;;;;24.43;55.47;99601.47;5030576;28;20048;-58
2023/06/16 07:50:29;;;;;;;7.37;3.30;;;;;;;24.47;54.99;99600.25;5039537;28;20066;-59
2023/06/16 07:53:00;;;;;;;8.83;3.23;;;;;;;24.32;54.36;99602.38;5027471;28;20056;-59
2023/06/16 07:55:31;;;;;;;11.83;3.40;;;;;;;24.18;54.60;99613.34;5040222;28;20060;-57
2023/06/16 07:58:02;;;;;;;9.27;3.33;;;;;;;24.16;54.35;99609.13;5029588;28;20083;-58
2023/06/16 08:00:34;;;;;;;8.23;2.67;;;;;;;24.08;54.62;99610.59;5035462;28;20143;-59
2023/06/16 08:03:05;;;;;;;7.27;2.80;;;;;;;24.04;55.21;99611.84;5040564;28;20098;-58
2023/06/16 08:05:35;;;;;;;7.67;2.83;;;;;;;24.06;55.07;99615.25;5030140;28;20067;-58
2023/06/16 08:08:06;;;;;;;5.17;2.60;;;;;;;24.13;54.57;99617.38;5039187;28;20048;-58
2023/06/16 08:10:37;;;;;;;8.10;3.03;;;;;;;24.05;55.24;99612.69;5029701;28;20061;-59
2023/06/16 08:13:08;;;;;;;7.53;3.17;;;;;;;24.09;54.67;99620.31;5039064;28;20052;-58
2023/06/16 08:15:40;;;;;;;4.20;2.70;;;;;;;24.04;54.40;99621.69;5029774;28;20110;-58
2023/06/16 08:18:11;;;;;;;4.97;3.37;;;;;;;23.96;53.86;99614.28;5040064;28;20384;-57
2023/06/16 08:20:41;;;;;;;6.07;3.50;;;;;;;23.83;53.93;99619.78;5029856;28;20071;-58
2023/06/16 08:23:14;;;;;;;7.13;3.47;;;;;;;23.71;54.44;99615.41;5037525;28;20404;-59
2023/06/16 08:25:45;;;;;;;4.20;3.40;;;;;;;23.37;54.00;99585.31;5029826;28;20044;-60
2023/06/16 08:28:16;;;;;;;6.90;3.20;;;;;;;23.51;55.14;99586.84;5039130;28;20056;-60
2023/06/16 08:30:48;;;;;;;12.17;3.50;;;;;;;23.67;54.35;99604.16;5028905;28;20092;-60
2023/06/16 08:33:19;;;;;;;6.50;3.70;;;;;;;23.60;54.38;99605.63;5039817;28;20471;-59
2023/06/16 08:35:50;;;;;;;8.80;3.50;;;;;;;23.43;54.95;99590.16;5029511;28;20059;-60
2023/06/16 08:38:21;;;;;;;10.20;3.63;;;;;;;23.67;54.97;99617.50;5039337;28;20554;-58
2023/06/16 08:40:52;;;;;;;11.13;3.60;;;;;;;23.67;55.01;99614.84;5029706;28;20849;-61
2023/06/16 08:43:24;;;;;;;8.23;3.67;;;;;;;23.57;55.18;99576.56;5039266;28;20076;-60
2023/06/16 08:45:58;;;;;;;12.27;3.07;;;;;;;23.73;55.12;99607.34;5029114;28;20056;-57
2023/06/16 08:48:29;;;;;;;7.77;3.40;;;;;;;23.70;55.08;99608.41;5040493;28;20045;-61
2023/06/16 08:51:01;;;;;;;8.83;3.20;;;;;;;23.48;55.37;99611.94;5030313;28;20040;-60
2023/06/16 08:53:33;;;;;;;14.10;3.10;;;;;;;23.42;55.92;99615.13;5042398;28;20052;-59
2023/06/16 08:56:07;;;;;;;5.03;3.10;;;;;;;23.42;55.93;99615.13;5043085;28;20114;-60
2023/06/16 08:58:40;;;;;;;7.37;3.27;;;;;;;23.43;56.10;99617.66;5033709;28;20051;-60
2023/06/16 09:01:15;;;;;;;10.20;3.07;;;;;;;23.36;56.43;99610.25;5043294;28;20076;-59
2023/06/16 09:07:01;;;;;;;6.30;3.17;;;;;;;23.36;55.91;99620.94;5032816;28;20052;-59
2023/06/16 09:09:35;;;;;;;7.83;3.37;;;;;;;23.38;56.33;99616.31;5033406;28;20056;-59
2023/06/16 09:12:16;;;;;;;9.50;3.27;;;;;;;23.43;55.92;99622.13;5043517;28;20056;-59
2023/06/16 09:14:49;;;;;;;11.40;3.27;;;;;;;23.37;56.16;99619.97;5032319;28;20091;-58
2023/06/16 09:17:34;;;;;;;8.70;3.07;;;;;;;23.32;56.01;99614.16;5043483;28;20049;-58
2023/06/16 09:20:07;;;;;;;7.67;3.10;;;;;;;23.19;56.06;99615.13;5033264;28;20044;-59
2023/06/16 09:22:40;;;;;;;10.60;3.30;;;;;;;22.83;56.46;99550.41;5033192;28;20561;-57
2023/06/16 09:25:13;;;;;;;9.93;3.70;;;;;;;22.98;56.59;99574.19;5043223;28;20582;-57
2023/06/16 09:27:49;;;;;;;6.57;3.37;;;;;;;23.11;56.72;99606.88;5032929;28;20060;-57
2023/06/16 09:30:51;;;;;;;;;;;;;;;;;;;;;
2023/06/16 09:37:08;;;;;;;8.93;3.90;;;;;;;22.99;57.66;99608.72;5030636;28;20055;-57
2023/06/16 09:39:40;;;;;;;13.07;3.93;;;;;;;22.97;57.59;99609.78;5032473;28;20056;-59
2023/06/16 09:42:13;;;;;;;8.47;3.57;;;;;;;22.73;57.86;99596.53;5043383;28;20064;-58
2023/06/16 09:44:45;;;;;;;8.30;4.03;;;;;;;22.63;58.25;99612.38;5032337;28;20056;-58
2023/06/16 09:47:16;;;;;;;11.57;3.53;;;;;;;22.51;58.31;99614.16;5042491;28;20048;-58
2023/06/16 09:49:55;;;;;;;12.03;4.20;;;;;;;22.38;58.37;99602.75;5032187;28;20044;-57
2023/06/16 09:52:28;;;;;;;9.53;3.67;;;;;;;22.29;59.01;99617.63;5042503;28;20041;-58
2023/06/16 09:55:02;;;;;;;9.77;4.20;;;;;;;22.12;59.23;99618.00;5032420;28;20057;-56
2023/06/16 09:57:34;;;;;;;12.20;4.30;;;;;;;21.89;59.83;99617.91;5035041;28;20045;-58
2023/06/16 10:00:09;;;;;;;12.23;5.03;;;;;;;21.73;60.53;99619.97;5042865;28;20300;-57
2023/06/16 10:02:43;;;;;;;11.90;5.67;;;;;;;21.37;61.42;99595.06;5031985;28;20080;-58
2023/06/16 10:05:18;;;;;;;10.77;4.40;;;;;;;21.25;62.21;99635.81;5042657;28;20062;-58
2023/06/16 10:07:51;;;;;;;10.67;4.60;;;;;;;20.99;62.55;99606.63;5032224;28;20092;-57
2023/06/16 10:10:25;;;;;;;11.03;4.00;;;;;;;20.75;63.42;99613.63;5041594;28;20351;-58
2023/06/16 10:12:57;;;;;;;13.07;4.47;;;;;;;20.48;64.34;99617.16;5032309;28;20060;-58
2023/06/16 10:15:30;;;;;;;19.67;4.30;;;;;;;20.29;64.75;99622.00;5042408;28;20286;-56
2023/06/16 10:18:05;;;;;;;11.73;4.07;;;;;;;20.08;65.42;99614.53;5029473;28;20386;-57
2023/06/16 10:20:44;;;;;;;11.73;4.10;;;;;;;19.64;65.91;99581.13;5031488;28;20287;-58
2023/06/16 10:23:17;;;;;;;14.80;3.57;;;;;;;19.77;65.83;99621.84;5042390;28;20294;-59
2023/06/16 10:25:48;;;;;;;18.67;4.23;;;;;;;19.64;65.75;99620.88;5031849;28;20290;-60
2023/06/16 10:28:21;;;;;;;12.97;3.90;;;;;;;19.54;66.01;99619.78;5041919;28;20360;-59
2023/06/16 10:30:53;;;;;;;13.03;5.23;;;;;;;19.35;66.06;99617.47;5031728;28;20283;-59
2023/06/16 10:33:28;;;;;;;12.23;5.20;;;;;;;19.28;66.90;99630.22;5007695;28;20286;-60
2023/06/16 10:36:07;;;;;;;13.17;6.10;;;;;;;19.17;67.51;99632.72;5031438;28;20298;-60
2023/06/16 10:38:58;;;;;;;19.23;7.07;;;;;;;19.09;67.99;99629.66;5031150;28;20287;-60
2023/06/16 10:41:31;;;;;;;13.68;6.80;;;;;;;18.96;68.01;99630.41;5041651;28;20279;-61
2023/06/16 10:44:26;;;;;;;15.77;6.87;;;;;;;18.84;68.12;99625.84;5031271;28;20568;-60
2023/06/16 10:47:36;;;;;;;15.50;6.93;;;;;;;18.68;68.93;99625.06;5031555;28;20822;-59
2023/06/16 10:50:09;;;;;;;10.43;4.87;;;;;;;18.53;69.04;99627.69;5031136;28;20769;-59
2023/06/16 10:52:57;;;;;;;12.77;5.27;;;;;;;18.43;69.06;99623.03;5031194;28;20746;-59
2023/06/16 10:55:36;;;;;;;12.60;5.23;;;;;;;18.25;68.68;99606.47;5040812;28;20720;-59
2023/06/16 10:58:26;;;;;;;11.20;4.50;;;;;;;18.16;69.43;99612.28;5030969;28;20319;-59
2023/06/16 11:01:24;;;;;;;10.50;4.60;;;;;;;17.91;69.43;99595.19;5030732;28;20117;-61
2023/06/16 11:04:03;;;;;;;12.13;4.78;;;;;;;17.95;69.62;99614.38;5031171;28;20700;-60
2023/06/16 11:07:13;;;;;;;7.75;4.32;;;;;;;17.89;69.69;99615.56;5031502;28;20060;-60
2023/06/16 11:10:06;;;;;;;6.93;4.17;;;;;;;17.79;69.90;99609.91;5016388;28;20052;-62
2023/06/16 11:12:39;;;;;;;9.60;4.63;;;;;;;17.62;70.13;99595.03;5011840;28;20280;-61
2023/06/16 11:15:12;;;;;;;9.00;4.17;;;;;;;17.47;70.94;99595.84;5040816;28;20295;-59
2023/06/16 11:17:45;;;;;;;5.47;3.90;;;;;;;17.20;71.34;99575.34;5030651;28;20290;-62
2023/06/16 11:20:17;;;;;;;7.37;4.30;;;;;;;17.33;72.35;99612.47;5040631;28;20291;-58
2023/06/16 11:22:50;;;;;;;10.50;4.33;;;;;;;17.18;73.88;99622.06;5030604;28;20394;-59
2023/06/16 11:25:24;;;;;;;6.73;4.00;;;;;;;17.03;75.79;99626.38;5041001;28;20279;-59
2023/06/16 11:27:55;;;;;;;9.57;4.47;;;;;;;16.90;76.97;99619.19;5030450;28;20271;-59
2023/06/16 11:30:28;;;;;;;12.30;4.40;;;;;;;16.75;78.32;99626.97;5040896;28;20287;-59
2023/06/16 11:33:00;;;;;;;7.37;4.27;;;;;;;16.69;79.02;99614.06;5030447;28;20705;-62
2023/06/16 11:35:35;;;;;;;11.70;4.53;;;;;;;16.59;79.24;99604.94;5041511;28;20405;-62
2023/06/16 11:38:06;;;;;;;13.63;5.73;;;;;;;16.63;79.63;99611.78;5030936;28;20289;-61
2023/06/16 11:40:40;;;;;;;11.43;5.77;;;;;;;16.66;80.04;99610.75;5030248;28;20294;-60
2023/06/16 11:43:16;;;;;;;16.50;9.77;;;;;;;16.63;80.63;99610.91;5040867;28;20297;-62
2023/06/16 11:45:49;;;;;;;22.30;12.20;;;;;;;16.59;81.27;99608.41;5030748;28;20280;-61
2023/06/16 11:48:21;;;;;;;15.80;9.60;;;;;;;16.51;81.29;99612.41;5040606;28;20355;-62
2023/06/16 11:50:53;;;;;;;16.57;6.77;;;;;;;16.18;81.86;99568.38;5029614;28;20292;-61
2023/06/16 11:53:25;;;;;;;14.17;5.17;;;;;;;16.12;82.05;99563.38;5040280;28;20282;-61
2023/06/16 11:56:00;;;;;;;11.90;5.33;;;;;;;16.26;82.66;99608.38;5030574;28;20287;-61
2023/06/16 11:58:31;;;;;;;11.30;4.90;;;;;;;16.14;83.29;99608.97;5040134;28;20968;-60
2023/06/16 12:01:05;;;;;;;13.83;5.57;;;;;;;16.06;83.96;99605.88;5029655;28;20287;-61
2023/06/16 12:03:37;;;;;;;14.80;5.43;;;;;;;15.98;84.57;99602.78;5030247;28;20297;-60
2023/06/16 12:06:32;;;;;;;15.53;6.37;;;;;;;15.94;85.40;99608.16;5040451;28;20624;-61